createdAt,value
2022-12-19T00:00:33.672Z,79.77
2022-12-19T00:01:33.735Z,80.29
2022-12-19T00:02:33.812Z,79.98
2022-12-19T00:03:33.768Z,79.87
2022-12-19T00:04:33.628Z,79.87
2022-12-19T00:05:33.633Z,80.19
2022-12-19T00:06:33.717Z,79.98
2022-12-19T00:07:33.659Z,79.94
2022-12-19T00:08:33.595Z,79.83
2022-12-19T00:09:33.571Z,80.05
2022-12-19T00:10:33.572Z,79.10
2022-12-19T00:11:33.567Z,79.41
2022-12-19T00:12:33.544Z,79.21
2022-12-19T00:13:40.786Z,79.17
2022-12-19T00:14:34.521Z,79.52
2022-12-19T00:15:33.548Z,78.47
2022-12-19T00:16:33.590Z,78.26
2022-12-19T00:17:33.494Z,78.19
2022-12-19T00:18:33.485Z,78.47
2022-12-19T00:19:33.469Z,79.14
2022-12-19T00:20:33.458Z,79.24
2022-12-19T00:21:34.890Z,79.56
2022-12-19T00:22:33.554Z,79.45
2022-12-19T00:23:33.426Z,79.80
2022-12-19T00:24:33.422Z,79.66
2022-12-19T00:25:33.411Z,79.87
2022-12-19T00:26:33.403Z,79.94
2022-12-19T00:27:33.388Z,79.73
2022-12-19T00:28:33.376Z,79.73
2022-12-19T00:29:33.361Z,79.35
2022-12-19T00:30:33.365Z,79.41
2022-12-19T00:31:33.542Z,79.21
2022-12-19T00:32:33.358Z,78.85
2022-12-19T00:33:33.326Z,78.33
2022-12-19T00:34:33.314Z,77.94
2022-12-19T00:35:33.300Z,78.58
2022-12-19T00:36:33.299Z,78.58
2022-12-19T00:37:33.289Z,78.36
2022-12-19T00:38:33.411Z,78.22
2022-12-19T00:39:33.258Z,78.26
2022-12-19T00:40:33.247Z,78.26
2022-12-19T00:41:33.236Z,78.44
2022-12-19T00:42:33.999Z,78.02
2022-12-19T00:43:33.215Z,78.22
2022-12-19T00:44:33.239Z,78.44
2022-12-19T00:45:33.290Z,77.91
2022-12-19T00:46:33.182Z,77.59
2022-12-19T00:47:33.173Z,77.48
2022-12-19T00:48:33.177Z,78.02
2022-12-19T00:49:33.187Z,78.26
2022-12-19T00:50:33.151Z,78.26
2022-12-19T00:51:33.173Z,78.78
2022-12-19T00:52:33.142Z,79.31
2022-12-19T00:53:33.154Z,78.68
2022-12-19T00:54:33.294Z,78.58
2022-12-19T00:55:33.098Z,78.68
2022-12-19T00:56:33.511Z,78.78
2022-12-19T00:57:33.115Z,79.21
2022-12-19T00:58:35.507Z,79.73
2022-12-19T00:59:33.060Z,79.41
2022-12-19T01:00:33.103Z,79.73
2022-12-19T01:01:33.252Z,79.41
2022-12-19T01:02:33.230Z,79.83
2022-12-19T01:03:33.016Z,79.63
2022-12-19T01:04:36.844Z,79.52
2022-12-19T01:05:33.984Z,79.17
2022-12-19T01:06:32.997Z,79.73
2022-12-19T01:07:32.973Z,79.41
2022-12-19T01:08:32.977Z,79.31
2022-12-19T01:09:32.966Z,79.52
2022-12-19T01:10:33.052Z,79.52
2022-12-19T01:11:32.924Z,79.52
2022-12-19T01:12:32.914Z,79.49
2022-12-19T01:13:32.917Z,79.41
2022-12-19T01:14:32.915Z,79.41
2022-12-19T01:15:32.918Z,79.41
2022-12-19T01:16:32.964Z,79.63
2022-12-19T01:17:32.870Z,79.52
2022-12-19T01:18:32.852Z,79.80
2022-12-19T01:19:32.853Z,79.31
2022-12-19T01:20:33.495Z,79.31
2022-12-19T01:21:32.828Z,79.63
2022-12-19T01:22:32.819Z,79.52
2022-12-19T01:23:32.804Z,79.73
2022-12-19T01:24:32.810Z,79.83
2022-12-19T01:25:32.806Z,79.98
2022-12-19T01:26:32.886Z,80.05
2022-12-19T01:27:32.760Z,79.94
2022-12-19T01:28:32.754Z,80.26
2022-12-19T01:29:32.738Z,80.15
2022-12-19T01:30:32.728Z,80.15
2022-12-19T01:31:32.798Z,80.15
2022-12-19T01:32:32.719Z,80.36
2022-12-19T01:33:32.705Z,80.29
2022-12-19T01:34:32.745Z,80.26
2022-12-19T01:35:32.684Z,80.26
2022-12-19T01:36:32.663Z,80.08
2022-12-19T01:37:32.658Z,80.40
2022-12-19T01:38:32.657Z,80.05
2022-12-19T01:39:33.514Z,80.29
2022-12-19T01:40:32.628Z,80.08
2022-12-19T01:41:32.623Z,80.51
2022-12-19T01:42:32.720Z,80.40
2022-12-19T01:43:32.603Z,80.40
2022-12-19T01:44:32.590Z,80.40
2022-12-19T01:45:34.695Z,80.61
2022-12-19T01:46:32.620Z,80.93
2022-12-19T01:47:32.564Z,81.13
2022-12-19T01:48:32.585Z,81.03
2022-12-19T01:49:32.526Z,81.03
2022-12-19T01:50:32.530Z,81.03
2022-12-19T01:51:32.519Z,81.13
2022-12-19T01:52:32.509Z,81.03
2022-12-19T01:53:32.503Z,80.51
2022-12-19T01:54:32.477Z,80.36
2022-12-19T01:55:32.478Z,80.57
2022-12-19T01:56:32.419Z,79.83
2022-12-19T01:57:32.443Z,80.05
2022-12-19T01:58:32.531Z,80.36
2022-12-19T01:59:32.402Z,79.83
2022-12-19T02:00:32.390Z,79.63
2022-12-19T02:01:32.421Z,79.94
2022-12-19T02:02:32.516Z,80.05
2022-12-19T02:03:32.400Z,80.15
2022-12-19T02:04:32.807Z,80.15
2022-12-19T02:05:32.340Z,80.26
2022-12-19T02:06:32.328Z,80.05
2022-12-19T02:07:32.313Z,79.94
2022-12-19T02:08:32.307Z,80.05
2022-12-19T02:09:32.319Z,79.73
2022-12-19T02:10:32.289Z,79.83
2022-12-19T02:11:32.282Z,79.91
2022-12-19T02:12:32.281Z,79.52
2022-12-19T02:13:32.252Z,79.41
2022-12-19T02:14:32.599Z,79.73
2022-12-19T02:15:32.263Z,79.31
2022-12-19T02:16:32.259Z,79.38
2022-12-19T02:17:32.247Z,79.69
2022-12-19T02:18:32.205Z,79.31
2022-12-19T02:19:32.204Z,79.52
2022-12-19T02:20:32.177Z,79.59
2022-12-19T02:21:32.169Z,79.27
2022-12-19T02:22:32.174Z,79.31
2022-12-19T02:23:32.162Z,79.52
2022-12-19T02:24:32.387Z,79.49
2022-12-19T02:25:32.140Z,79.49
2022-12-19T02:26:32.125Z,79.17
2022-12-19T02:27:35.911Z,79.66
2022-12-19T02:28:32.103Z,78.61
2022-12-19T02:29:32.114Z,78.02
2022-12-19T02:30:32.201Z,78.08
2022-12-19T02:31:32.115Z,78.12
2022-12-19T02:32:32.075Z,78.02
2022-12-19T02:33:32.062Z,78.44
2022-12-19T02:34:32.047Z,78.50
2022-12-19T02:35:32.051Z,78.19
2022-12-19T02:36:33.924Z,77.87
2022-12-19T02:37:33.013Z,77.56
2022-12-19T02:38:32.009Z,77.56
2022-12-19T02:39:32.794Z,77.56
2022-12-19T02:40:31.992Z,77.66
2022-12-19T02:41:31.985Z,77.76
2022-12-19T02:42:32.220Z,77.45
2022-12-19T02:43:31.957Z,77.87
2022-12-19T02:44:31.943Z,77.76
2022-12-19T02:45:31.967Z,77.56
2022-12-19T02:46:32.040Z,77.45
2022-12-19T02:47:31.910Z,77.03
2022-12-19T02:48:31.916Z,76.96
2022-12-19T02:49:31.893Z,77.91
2022-12-19T02:50:31.889Z,77.70
2022-12-19T02:51:31.883Z,77.70
2022-12-19T02:52:31.870Z,77.91
2022-12-19T02:53:31.854Z,77.91
2022-12-19T02:54:31.843Z,78.12
2022-12-19T02:55:31.842Z,78.22
2022-12-19T02:56:31.835Z,78.19
2022-12-19T02:57:31.816Z,77.98
2022-12-19T02:58:31.827Z,77.66
2022-12-19T02:59:31.791Z,77.56
2022-12-19T03:00:31.790Z,77.28
2022-12-19T03:01:31.933Z,77.80
2022-12-19T03:02:31.988Z,77.59
2022-12-19T03:03:31.880Z,77.70
2022-12-19T03:04:31.747Z,77.80
2022-12-19T03:05:31.758Z,77.59
2022-12-19T03:06:31.742Z,77.48
2022-12-19T03:07:31.722Z,77.70
2022-12-19T03:08:31.708Z,77.91
2022-12-19T03:09:31.703Z,77.56
2022-12-19T03:10:31.696Z,77.76
2022-12-19T03:11:31.699Z,77.56
2022-12-19T03:12:31.675Z,77.66
2022-12-19T03:13:31.666Z,77.45
2022-12-19T03:14:31.718Z,77.66
2022-12-19T03:15:31.632Z,77.45
2022-12-19T03:16:31.648Z,77.87
2022-12-19T03:17:31.616Z,77.70
2022-12-19T03:18:31.741Z,77.35
2022-12-19T03:19:31.602Z,77.56
2022-12-19T03:20:31.604Z,77.59
2022-12-19T03:21:31.666Z,77.45
2022-12-19T03:22:31.570Z,77.38
2022-12-19T03:23:31.575Z,77.45
2022-12-19T03:24:31.560Z,77.56
2022-12-19T03:25:31.551Z,77.70
2022-12-19T03:26:31.605Z,77.59
2022-12-19T03:27:31.516Z,77.98
2022-12-19T03:28:31.517Z,77.66
2022-12-19T03:29:31.512Z,77.45
2022-12-19T03:30:31.535Z,77.59
2022-12-19T03:31:31.486Z,77.56
2022-12-19T03:32:31.469Z,77.76
2022-12-19T03:33:31.459Z,77.66
2022-12-19T03:34:31.599Z,77.70
2022-12-19T03:35:31.445Z,78.12
2022-12-19T03:36:31.431Z,77.91
2022-12-19T03:37:31.419Z,77.70
2022-12-19T03:38:31.409Z,78.22
2022-12-19T03:39:31.393Z,78.19
2022-12-19T03:40:31.394Z,78.02
2022-12-19T03:41:31.389Z,77.70
2022-12-19T03:42:31.385Z,77.59
2022-12-19T03:43:31.371Z,78.12
2022-12-19T03:44:31.355Z,77.91
2022-12-19T03:45:31.340Z,77.87
2022-12-19T03:46:31.352Z,77.87
2022-12-19T03:47:31.340Z,77.66
2022-12-19T03:48:31.301Z,77.66
2022-12-19T03:49:31.290Z,77.87
2022-12-19T03:50:31.416Z,77.98
2022-12-19T03:51:31.301Z,77.45
2022-12-19T03:52:31.263Z,77.48
2022-12-19T03:53:31.262Z,77.91
2022-12-19T03:54:31.286Z,77.80
2022-12-19T03:55:31.228Z,78.02
2022-12-19T03:56:31.229Z,77.98
2022-12-19T03:57:31.224Z,77.98
2022-12-19T03:58:31.198Z,77.56
2022-12-19T03:59:31.196Z,77.91
2022-12-19T04:00:31.203Z,77.48
2022-12-19T04:01:31.232Z,77.70
2022-12-19T04:02:31.225Z,77.70
2022-12-19T04:03:31.193Z,78.16
2022-12-19T04:04:31.138Z,78.36
2022-12-19T04:05:31.135Z,78.68
2022-12-19T04:06:31.251Z,78.54
2022-12-19T04:07:31.116Z,78.85
2022-12-19T04:08:31.121Z,78.64
2022-12-19T04:09:31.094Z,78.75
2022-12-19T04:10:31.098Z,78.75
2022-12-19T04:11:31.070Z,78.02
2022-12-19T04:12:31.078Z,77.91
2022-12-19T04:13:31.053Z,77.80
2022-12-19T04:14:31.056Z,78.33
2022-12-19T04:15:31.080Z,78.22
2022-12-19T04:16:31.037Z,78.36
2022-12-19T04:17:31.022Z,78.47
2022-12-19T04:18:31.023Z,78.68
2022-12-19T04:19:30.990Z,79.21
2022-12-19T04:20:30.984Z,79.63
2022-12-19T04:21:30.995Z,79.49
2022-12-19T04:22:31.077Z,78.96
2022-12-19T04:23:30.946Z,78.64
2022-12-19T04:24:30.944Z,78.47
2022-12-19T04:25:30.940Z,78.44
2022-12-19T04:26:30.921Z,78.68
2022-12-19T04:27:30.909Z,78.89
2022-12-19T04:28:30.886Z,79.38
2022-12-19T04:29:30.882Z,79.38
2022-12-19T04:30:30.898Z,78.64
2022-12-19T04:31:31.910Z,78.64
2022-12-19T04:32:30.859Z,78.54
2022-12-19T04:33:30.848Z,78.19
2022-12-19T04:34:30.838Z,78.22
2022-12-19T04:35:30.844Z,77.98
2022-12-19T04:36:30.814Z,77.76
2022-12-19T04:37:30.807Z,77.76
2022-12-19T04:38:30.894Z,78.08
2022-12-19T04:39:30.783Z,78.19
2022-12-19T04:40:30.776Z,78.02
2022-12-19T04:41:30.765Z,78.19
2022-12-19T04:42:30.751Z,78.12
2022-12-19T04:43:30.755Z,78.22
2022-12-19T04:44:30.729Z,78.02
2022-12-19T04:45:30.721Z,78.12
2022-12-19T04:46:30.747Z,78.22
2022-12-19T04:47:38.548Z,78.22
2022-12-19T04:48:30.683Z,78.29
2022-12-19T04:49:30.700Z,78.19
2022-12-19T04:50:30.663Z,78.12
2022-12-19T04:51:30.651Z,77.59
2022-12-19T04:52:30.640Z,78.02
2022-12-19T04:53:30.657Z,78.33
2022-12-19T04:54:30.758Z,79.00
2022-12-19T04:55:30.609Z,79.38
2022-12-19T04:56:30.608Z,79.49
2022-12-19T04:57:30.594Z,78.75
2022-12-19T04:58:30.586Z,78.64
2022-12-19T04:59:30.584Z,78.96
2022-12-19T05:00:30.563Z,78.85
2022-12-19T05:01:30.691Z,78.85
2022-12-19T05:02:30.683Z,78.64
2022-12-19T05:03:30.578Z,78.12
2022-12-19T05:04:30.526Z,78.22
2022-12-19T05:05:30.520Z,78.44
2022-12-19T05:06:30.523Z,78.54
2022-12-19T05:07:30.504Z,78.75
2022-12-19T05:08:30.477Z,78.96
2022-12-19T05:09:30.468Z,79.27
2022-12-19T05:10:30.590Z,79.49
2022-12-19T05:11:30.477Z,79.49
2022-12-19T05:12:30.430Z,78.44
2022-12-19T05:13:30.427Z,78.64
2022-12-19T05:14:30.406Z,78.54
2022-12-19T05:15:30.407Z,78.64
2022-12-19T05:16:30.418Z,78.64
2022-12-19T05:17:30.381Z,78.85
2022-12-19T05:18:30.374Z,78.75
2022-12-19T05:19:30.356Z,78.89
2022-12-19T05:20:30.356Z,79.06
2022-12-19T05:21:30.350Z,79.52
2022-12-19T05:22:30.328Z,79.41
2022-12-19T05:23:30.322Z,79.17
2022-12-19T05:24:30.306Z,79.17
2022-12-19T05:25:30.302Z,79.69
2022-12-19T05:26:30.409Z,79.49
2022-12-19T05:27:30.300Z,78.75
2022-12-19T05:28:30.263Z,78.75
2022-12-19T05:29:30.252Z,78.75
2022-12-19T05:30:30.249Z,78.96
2022-12-19T05:31:30.360Z,79.27
2022-12-19T05:32:30.222Z,79.49
2022-12-19T05:33:30.214Z,79.59
2022-12-19T05:34:30.211Z,78.75
2022-12-19T05:35:30.203Z,78.85
2022-12-19T05:36:32.567Z,78.64
2022-12-19T05:37:30.180Z,79.63
2022-12-19T05:38:30.179Z,79.31
2022-12-19T05:39:30.150Z,79.17
2022-12-19T05:40:30.135Z,79.73
2022-12-19T05:41:30.142Z,80.05
2022-12-19T05:42:30.233Z,79.49
2022-12-19T05:43:30.139Z,80.05
2022-12-19T05:44:30.097Z,79.63
2022-12-19T05:45:30.080Z,79.38
2022-12-19T05:46:30.195Z,80.11
2022-12-19T05:47:30.064Z,79.91
2022-12-19T05:48:30.052Z,79.59
2022-12-19T05:49:30.062Z,79.38
2022-12-19T05:50:30.031Z,79.27
2022-12-19T05:51:30.031Z,79.17
2022-12-19T05:52:30.018Z,79.66
2022-12-19T05:53:29.996Z,79.45
2022-12-19T05:54:30.026Z,79.24
2022-12-19T05:55:29.980Z,79.77
2022-12-19T05:56:30.008Z,79.66
2022-12-19T05:57:29.956Z,79.66
2022-12-19T05:58:30.068Z,79.66
2022-12-19T05:59:29.944Z,79.55
2022-12-19T06:00:29.960Z,79.62
2022-12-19T06:01:29.942Z,78.67
2022-12-19T06:02:30.066Z,78.50
2022-12-19T06:03:29.953Z,78.47
2022-12-19T06:04:29.884Z,78.78
2022-12-19T06:05:29.947Z,78.89
2022-12-19T06:06:29.873Z,78.57
2022-12-19T06:07:29.869Z,78.57
2022-12-19T06:08:29.860Z,78.15
2022-12-19T06:09:29.836Z,78.36
2022-12-19T06:10:29.833Z,77.94
2022-12-19T06:11:29.821Z,78.47
2022-12-19T06:12:29.809Z,78.15
2022-12-19T06:13:29.804Z,78.26
2022-12-19T06:14:29.887Z,78.47
2022-12-19T06:15:29.791Z,78.89
2022-12-19T06:16:29.797Z,79.83
2022-12-19T06:17:29.768Z,78.89
2022-12-19T06:18:29.791Z,78.57
2022-12-19T06:19:29.747Z,78.47
2022-12-19T06:20:29.736Z,78.36
2022-12-19T06:21:29.748Z,78.36
2022-12-19T06:22:29.756Z,78.57
2022-12-19T06:23:29.700Z,78.71
2022-12-19T06:24:29.676Z,79.31
2022-12-19T06:25:29.670Z,79.41
2022-12-19T06:26:29.688Z,79.83
2022-12-19T06:27:29.652Z,79.10
2022-12-19T06:28:29.658Z,79.41
2022-12-19T06:29:29.654Z,79.52
2022-12-19T06:30:29.660Z,78.64
2022-12-19T06:31:29.724Z,78.36
2022-12-19T06:32:32.396Z,78.05
2022-12-19T06:33:29.605Z,78.53
2022-12-19T06:35:02.221Z,78.22
2022-12-19T06:35:30.564Z,78.12
2022-12-19T06:36:29.556Z,78.15
2022-12-19T06:37:29.558Z,78.57
2022-12-19T06:38:29.545Z,78.64
2022-12-19T06:39:29.538Z,78.78
2022-12-19T06:40:29.512Z,78.75
2022-12-19T06:41:29.522Z,78.85
2022-12-19T06:42:29.486Z,78.43
2022-12-19T06:43:29.488Z,78.78
2022-12-19T06:44:29.474Z,78.22
2022-12-19T06:45:29.540Z,78.53
2022-12-19T06:46:29.705Z,78.47
2022-12-19T06:47:29.465Z,78.78
2022-12-19T06:48:29.432Z,78.57
2022-12-19T06:49:29.414Z,78.99
2022-12-19T06:50:29.407Z,78.99
2022-12-19T06:51:29.403Z,79.83
2022-12-19T06:52:29.401Z,78.75
2022-12-19T06:53:29.402Z,78.85
2022-12-19T06:54:29.384Z,78.64
2022-12-19T06:55:29.360Z,78.43
2022-12-19T06:56:29.351Z,78.64
2022-12-19T06:57:29.340Z,78.64
2022-12-19T06:58:29.337Z,78.12
2022-12-19T06:59:29.319Z,78.29
2022-12-19T07:00:29.320Z,78.12
2022-12-19T07:01:29.444Z,77.80
2022-12-19T07:02:29.665Z,77.70
2022-12-19T07:03:29.286Z,77.91
2022-12-19T07:04:29.266Z,77.98
2022-12-19T07:05:29.251Z,78.39
2022-12-19T07:06:29.257Z,77.66
2022-12-19T07:07:29.229Z,77.66
2022-12-19T07:08:29.238Z,77.66
2022-12-19T07:09:29.233Z,77.34
2022-12-19T07:10:29.236Z,77.66
2022-12-19T07:11:29.189Z,77.45
2022-12-19T07:12:29.202Z,77.66
2022-12-19T07:13:29.170Z,77.66
2022-12-19T07:14:29.153Z,77.56
2022-12-19T07:15:29.143Z,77.66
2022-12-19T07:16:29.262Z,77.98
2022-12-19T07:17:29.147Z,77.31
2022-12-19T07:18:29.231Z,77.66
2022-12-19T07:19:29.107Z,77.52
2022-12-19T07:20:29.126Z,76.82
2022-12-19T07:21:29.093Z,77.14
2022-12-19T07:22:29.085Z,77.21
2022-12-19T07:23:29.079Z,76.79
2022-12-19T07:24:29.089Z,77.00
2022-12-19T07:25:29.043Z,77.00
2022-12-19T07:26:29.061Z,77.10
2022-12-19T07:27:35.486Z,77.00
2022-12-19T07:28:30.017Z,77.10
2022-12-19T07:29:29.005Z,77.21
2022-12-19T07:30:28.994Z,77.21
2022-12-19T07:31:29.027Z,76.89
2022-12-19T07:32:28.968Z,77.14
2022-12-19T07:33:28.963Z,77.21
2022-12-19T07:34:29.066Z,77.21
2022-12-19T07:35:28.943Z,77.62
2022-12-19T07:36:28.941Z,77.21
2022-12-19T07:37:28.937Z,77.42
2022-12-19T07:38:28.912Z,77.00
2022-12-19T07:39:28.904Z,76.68
2022-12-19T07:40:29.027Z,76.75
2022-12-19T07:41:28.871Z,76.47
2022-12-19T07:42:32.447Z,77.38
2022-12-19T07:43:28.958Z,77.07
2022-12-19T07:44:28.939Z,77.00
2022-12-19T07:45:28.865Z,76.96
2022-12-19T07:46:28.819Z,76.75
2022-12-19T07:47:28.823Z,76.12
2022-12-19T07:48:28.845Z,76.23
2022-12-19T07:49:28.953Z,75.92
2022-12-19T07:50:28.961Z,75.29
2022-12-19T07:51:28.773Z,75.60
2022-12-19T07:52:28.767Z,75.49
2022-12-19T07:53:28.781Z,75.60
2022-12-19T07:54:28.737Z,75.39
2022-12-19T07:55:28.739Z,75.70
2022-12-19T07:56:28.737Z,75.49
2022-12-19T07:57:28.726Z,75.70
2022-12-19T07:58:28.720Z,75.92
2022-12-19T07:59:32.297Z,75.92
2022-12-19T08:00:29.675Z,75.60
2022-12-19T08:01:29.252Z,75.78
2022-12-19T08:02:28.856Z,74.93
2022-12-19T08:03:28.691Z,74.93
2022-12-19T08:04:28.638Z,75.67
2022-12-19T08:05:28.631Z,75.04
2022-12-19T08:06:28.730Z,75.25
2022-12-19T08:07:28.642Z,75.39
2022-12-19T08:08:28.647Z,75.25
2022-12-19T08:09:28.580Z,74.83
2022-12-19T08:10:28.633Z,75.04
2022-12-19T08:11:28.572Z,75.35
2022-12-19T08:12:28.569Z,74.83
2022-12-19T08:13:32.407Z,75.25
2022-12-19T08:14:29.580Z,75.43
2022-12-19T08:15:28.528Z,75.21
2022-12-19T08:16:28.542Z,74.90
2022-12-19T08:17:28.560Z,74.06
2022-12-19T08:18:28.508Z,74.06
2022-12-19T08:19:28.503Z,74.48
2022-12-19T08:20:28.497Z,74.27
2022-12-19T08:21:28.477Z,76.06
2022-12-19T08:22:28.573Z,77.91
2022-12-19T08:23:28.443Z,77.34
2022-12-19T08:24:28.434Z,75.49
2022-12-19T08:25:28.449Z,73.89
2022-12-19T08:26:32.726Z,73.82
2022-12-19T08:27:28.402Z,73.82
2022-12-19T08:28:28.388Z,73.82
2022-12-19T08:29:28.387Z,74.34
2022-12-19T08:30:28.469Z,74.34
2022-12-19T08:31:28.397Z,73.82
2022-12-19T08:32:28.360Z,73.72
2022-12-19T08:33:28.344Z,73.99
2022-12-19T08:34:28.333Z,73.40
2022-12-19T08:35:28.321Z,73.61
2022-12-19T08:36:28.320Z,73.61
2022-12-19T08:37:28.333Z,73.37
2022-12-19T08:38:28.301Z,73.72
2022-12-19T08:39:28.293Z,73.61
2022-12-19T08:40:28.269Z,73.58
2022-12-19T08:41:28.258Z,73.47
2022-12-19T08:42:28.267Z,72.85
2022-12-19T08:43:28.260Z,72.85
2022-12-19T08:44:28.226Z,73.26
2022-12-19T08:45:28.226Z,73.16
2022-12-19T08:46:28.359Z,72.85
2022-12-19T08:47:28.198Z,73.05
2022-12-19T08:48:28.185Z,73.05
2022-12-19T08:49:28.174Z,74.03
2022-12-19T08:50:28.158Z,74.03
2022-12-19T08:51:28.167Z,73.58
2022-12-19T08:52:28.145Z,73.79
2022-12-19T08:53:28.139Z,73.82
2022-12-19T08:54:28.229Z,73.58
2022-12-19T08:55:28.109Z,73.99
2022-12-19T08:56:28.120Z,73.79
2022-12-19T08:57:28.111Z,73.33
2022-12-19T08:58:28.120Z,72.71
2022-12-19T08:59:31.267Z,72.81
2022-12-19T09:00:28.084Z,72.60
2022-12-19T09:01:28.162Z,72.60
2022-12-19T09:02:28.324Z,72.92
2022-12-19T09:03:32.136Z,72.50
2022-12-19T09:05:59.848Z,72.60
2022-12-19T09:06:05.343Z,72.50
2022-12-19T09:06:29.278Z,72.81
2022-12-19T09:07:28.024Z,72.81
2022-12-19T09:08:27.996Z,72.81
2022-12-19T09:09:27.991Z,72.78
2022-12-19T09:10:28.080Z,72.57
2022-12-19T09:11:27.974Z,72.57
2022-12-19T09:12:27.958Z,72.05
2022-12-19T09:13:27.938Z,72.57
2022-12-19T09:14:27.980Z,72.78
2022-12-19T09:15:27.952Z,72.47
2022-12-19T09:16:28.057Z,72.57
2022-12-19T09:17:27.930Z,72.36
2022-12-19T09:18:27.895Z,72.47
2022-12-19T09:19:27.880Z,72.88
2022-12-19T09:20:27.935Z,72.53
2022-12-19T09:21:27.905Z,72.85
2022-12-19T09:22:29.269Z,72.96
2022-12-19T09:23:27.813Z,71.98
2022-12-19T09:24:27.801Z,71.59
2022-12-19T09:25:27.801Z,71.80
2022-12-19T09:26:27.797Z,71.18
2022-12-19T09:27:28.792Z,71.80
2022-12-19T09:28:28.301Z,71.59
2022-12-19T09:29:30.905Z,71.49
2022-12-19T09:30:28.780Z,71.80
2022-12-19T09:31:27.873Z,71.18
2022-12-19T09:32:27.807Z,71.80
2022-12-19T09:33:27.807Z,71.49
2022-12-19T09:34:37.724Z,72.02
2022-12-19T09:35:30.624Z,71.59
2022-12-19T09:36:27.689Z,71.28
2022-12-19T09:37:27.692Z,71.70
2022-12-19T09:38:27.675Z,71.59
2022-12-19T09:39:27.722Z,71.67
2022-12-19T09:40:27.651Z,71.67
2022-12-19T09:41:27.646Z,71.25
2022-12-19T09:42:27.734Z,70.94
2022-12-19T09:43:27.707Z,71.18
2022-12-19T09:44:27.635Z,71.46
2022-12-19T09:45:31.926Z,71.88
2022-12-19T09:46:28.674Z,70.94
2022-12-19T09:47:27.619Z,71.46
2022-12-19T09:48:27.586Z,71.32
2022-12-19T09:49:28.623Z,70.94
2022-12-19T09:50:28.191Z,70.83
2022-12-19T09:51:27.602Z,70.94
2022-12-19T09:52:31.644Z,70.94
2022-12-19T09:53:28.590Z,71.22
2022-12-19T09:54:27.531Z,71.32
2022-12-19T09:55:27.504Z,70.80
2022-12-19T09:56:27.503Z,70.87
2022-12-19T09:57:27.460Z,70.14
2022-12-19T09:58:27.582Z,70.45
2022-12-19T09:59:31.806Z,69.62
2022-12-19T10:00:28.444Z,69.31
2022-12-19T10:01:27.700Z,69.82
2022-12-19T10:02:27.741Z,69.59
2022-12-19T10:03:27.520Z,69.20
2022-12-19T10:04:27.411Z,69.31
2022-12-19T10:06:01.824Z,69.48
2022-12-19T10:07:18.378Z,69.17
2022-12-19T10:07:51.369Z,69.48
2022-12-19T10:08:28.375Z,69.17
2022-12-19T10:11:37.718Z,68.54
2022-12-19T10:12:35.913Z,68.33
2022-12-19T10:12:46.214Z,68.65
2022-12-19T10:12:47.994Z,68.96
2022-12-19T10:13:28.301Z,69.59
2022-12-19T10:14:27.464Z,68.85
2022-12-19T10:15:27.288Z,68.65
2022-12-19T10:16:27.332Z,68.62
2022-12-19T10:17:27.255Z,68.51
2022-12-19T10:18:27.272Z,68.41
2022-12-19T10:19:27.268Z,68.41
2022-12-19T10:20:27.282Z,68.51
2022-12-19T10:21:50.820Z,68.48
2022-12-19T10:22:28.212Z,68.27
2022-12-19T10:23:27.213Z,68.27
2022-12-19T10:24:33.161Z,68.27
2022-12-19T10:25:28.186Z,68.30
2022-12-19T10:26:30.066Z,68.20
2022-12-19T10:27:27.142Z,68.41
2022-12-19T10:28:27.177Z,68.30
2022-12-19T10:29:27.152Z,69.03
2022-12-19T10:30:27.224Z,68.65
2022-12-19T10:31:27.202Z,68.65
2022-12-19T10:32:27.098Z,68.82
2022-12-19T10:33:27.088Z,68.82
2022-12-19T10:34:27.082Z,68.62
2022-12-19T10:35:27.071Z,68.93
2022-12-19T10:36:55.995Z,69.24
2022-12-19T10:37:37.665Z,68.69
2022-12-19T10:38:28.033Z,68.69
2022-12-19T10:39:27.025Z,68.90
2022-12-19T10:40:27.907Z,68.90
2022-12-19T10:41:27.029Z,68.59
2022-12-19T10:42:26.992Z,68.27
2022-12-19T10:43:33.653Z,68.59
2022-12-19T10:44:27.002Z,68.59
2022-12-19T10:45:27.027Z,68.24
2022-12-19T10:46:27.131Z,68.07
2022-12-19T10:47:26.949Z,68.17
2022-12-19T10:48:30.328Z,68.17
2022-12-19T10:49:26.954Z,68.48
2022-12-19T10:50:26.937Z,68.45
2022-12-19T10:51:26.916Z,68.66
2022-12-19T10:52:26.875Z,68.24
2022-12-19T10:53:26.870Z,68.13
2022-12-19T10:54:33.426Z,67.93
2022-12-19T10:55:27.910Z,68.13
2022-12-19T10:56:33.156Z,68.13
2022-12-19T10:57:27.832Z,68.45
2022-12-19T10:58:26.857Z,68.24
2022-12-19T10:59:26.832Z,68.03
2022-12-19T11:00:26.834Z,68.13
2022-12-19T11:01:26.958Z,68.24
2022-12-19T11:02:27.016Z,68.03
2022-12-19T11:03:26.952Z,68.35
2022-12-19T11:04:26.979Z,68.24
2022-12-19T11:05:26.885Z,67.93
2022-12-19T11:06:26.751Z,68.03
2022-12-19T11:07:26.769Z,68.35
2022-12-19T11:08:26.763Z,68.35
2022-12-19T11:09:26.710Z,68.13
2022-12-19T11:11:00.485Z,68.87
2022-12-19T11:15:28.495Z,69.07
2022-12-19T11:16:30.265Z,69.10
2022-12-19T11:17:39.810Z,69.91
2022-12-19T11:19:29.680Z,70.22
2022-12-19T11:20:48.571Z,70.09
2022-12-19T11:22:39.112Z,70.01
2022-12-19T11:26:32.541Z,69.38
2022-12-19T11:26:33.322Z,69.81
2022-12-19T11:29:25.026Z,69.38
2022-12-19T11:29:31.324Z,70.64
2022-12-19T11:29:32.463Z,71.68
2022-12-19T11:29:36.866Z,70.12
2022-12-19T11:29:37.686Z,70.95
2022-12-19T11:29:39.637Z,71.16
2022-12-19T11:29:45.792Z,71.26
2022-12-19T11:29:45.795Z,72.06
2022-12-19T11:30:45.506Z,71.47
2022-12-19T11:30:46.431Z,72.06
2022-12-19T11:32:31.533Z,72.27
2022-12-19T11:32:45.618Z,73.21
2022-12-19T11:33:27.481Z,73.10
2022-12-19T11:34:26.556Z,73.24
2022-12-19T11:35:36.693Z,74.35
2022-12-19T11:36:27.439Z,73.55
2022-12-19T11:37:26.420Z,74.04
2022-12-19T11:38:26.421Z,74.80
2022-12-19T11:39:26.384Z,75.09
2022-12-19T11:40:26.375Z,75.53
2022-12-19T11:41:26.387Z,76.78
2022-12-19T11:42:26.367Z,76.54
2022-12-19T11:43:44.034Z,76.54
2022-12-19T11:44:27.362Z,76.37
2022-12-19T11:45:26.337Z,76.33
2022-12-19T11:46:26.327Z,76.37
2022-12-19T11:47:26.312Z,76.89
2022-12-19T11:48:26.304Z,77.31
2022-12-19T11:49:26.320Z,78.03
2022-12-19T11:50:26.430Z,78.31
2022-12-19T11:51:26.292Z,79.08
2022-12-19T11:53:27.250Z,79.18
2022-12-19T11:54:26.227Z,79.60
2022-12-19T11:55:26.232Z,80.54
2022-12-19T11:56:26.215Z,80.43
2022-12-19T11:57:26.210Z,80.22
2022-12-19T11:58:26.198Z,80.33
2022-12-19T11:59:26.195Z,80.85
2022-12-19T12:00:26.169Z,80.64
2022-12-19T12:01:26.214Z,80.43
2022-12-19T12:02:26.160Z,80.64
2022-12-19T12:03:26.165Z,81.47
2022-12-19T12:04:26.188Z,81.37
2022-12-19T12:05:26.115Z,81.99
2022-12-19T12:06:31.270Z,82.10
2022-12-19T12:08:34.568Z,81.89
2022-12-19T12:09:43.603Z,81.99
2022-12-19T12:12:42.284Z,82.31
2022-12-19T12:15:16.248Z,83.04
2022-12-19T12:18:05.702Z,83.04
2022-12-19T12:19:43.265Z,83.45
2022-12-19T12:25:18.716Z,83.87
2022-12-19T12:27:34.804Z,84.60
2022-12-19T12:28:55.307Z,84.60
2022-12-19T12:31:00.088Z,84.28
2022-12-19T12:31:01.643Z,85.12
2022-12-19T12:31:15.730Z,86.06
2022-12-19T12:31:17.155Z,86.58
2022-12-19T12:31:18.282Z,85.96
2022-12-19T12:31:18.531Z,85.33
2022-12-19T12:31:19.468Z,85.53
2022-12-19T12:31:21.869Z,85.02
2022-12-19T12:31:46.190Z,89.08
2022-12-19T12:31:50.066Z,87.10
2022-12-19T12:31:53.468Z,88.45
2022-12-19T12:31:54.262Z,87.30
2022-12-19T12:31:55.171Z,88.76
2022-12-19T12:31:56.859Z,87.62
2022-12-19T12:31:58.821Z,88.76
2022-12-19T12:33:26.828Z,88.98
2022-12-19T12:35:36.474Z,89.50
2022-12-19T12:35:45.381Z,88.98
2022-12-19T12:38:28.514Z,90.75
2022-12-19T12:39:31.525Z,90.64
2022-12-19T12:40:26.779Z,90.44
2022-12-19T12:41:25.735Z,91.27
2022-12-19T12:42:25.725Z,91.16
2022-12-19T12:43:25.741Z,91.58
2022-12-19T12:44:32.525Z,91.47
2022-12-19T12:45:26.695Z,91.58
2022-12-19T12:46:25.725Z,91.68
2022-12-19T12:47:25.700Z,92.21
2022-12-19T12:48:25.685Z,92.10
2022-12-19T12:49:25.657Z,92.21
2022-12-19T12:50:25.655Z,92.72
2022-12-19T12:51:25.653Z,93.14
2022-12-19T12:52:25.651Z,93.04
2022-12-19T12:53:25.659Z,92.72
2022-12-19T12:54:25.639Z,93.24
2022-12-19T12:55:25.601Z,93.35
2022-12-19T12:56:25.587Z,94.08
2022-12-19T12:57:25.578Z,93.87
2022-12-19T12:58:25.570Z,94.08
2022-12-19T12:59:25.570Z,94.39